sensor_id;sensor_type;location;lat;lon;timestamp;P1;durP1;ratioP1;P2;durP2;ratioP2
29414;SDS011;20303;48.302;11.914;2022-10-16T00:00:09;1.65;;;1.40;;
29414;SDS011;20303;48.302;11.914;2022-10-16T00:10:11;1.70;;;1.60;;
29414;SDS011;20303;48.302;11.914;2022-10-16T00:20:12;1.75;;;1.50;;
29414;SDS011;20303;48.302;11.914;2022-10-16T00:30:13;1.60;;;1.50;;
29414;SDS011;20303;48.302;11.914;2022-10-16T00:40:15;1.90;;;1.63;;
29414;SDS011;20303;48.302;11.914;2022-10-16T00:50:32;1.50;;;1.40;;
29414;SDS011;20303;48.302;11.914;2022-10-16T01:00:34;1.70;;;1.58;;
29414;SDS011;20303;48.302;11.914;2022-10-16T01:10:40;1.60;;;1.50;;
29414;SDS011;20303;48.302;11.914;2022-10-16T01:20:57;1.85;;;1.50;;
29414;SDS011;20303;48.302;11.914;2022-10-16T01:31:08;1.60;;;1.50;;
29414;SDS011;20303;48.302;11.914;2022-10-16T01:41:15;2.30;;;1.55;;
29414;SDS011;20303;48.302;11.914;2022-10-16T01:51:24;1.50;;;1.40;;
29414;SDS011;20303;48.302;11.914;2022-10-16T02:01:27;1.40;;;1.30;;
29414;SDS011;20303;48.302;11.914;2022-10-16T02:11:31;1.70;;;1.50;;
29414;SDS011;20303;48.302;11.914;2022-10-16T02:21:34;3.08;;;1.52;;
29414;SDS011;20303;48.302;11.914;2022-10-16T02:31:50;1.50;;;1.40;;
29414;SDS011;20303;48.302;11.914;2022-10-16T02:41:55;1.50;;;1.40;;
29414;SDS011;20303;48.302;11.914;2022-10-16T02:51:57;1.70;;;1.50;;
29414;SDS011;20303;48.302;11.914;2022-10-16T03:01:58;1.38;;;1.27;;
29414;SDS011;20303;48.302;11.914;2022-10-16T03:11:59;1.65;;;1.55;;
29414;SDS011;20303;48.302;11.914;2022-10-16T03:22:00;1.63;;;1.40;;
29414;SDS011;20303;48.302;11.914;2022-10-16T03:32:02;1.55;;;1.40;;
29414;SDS011;20303;48.302;11.914;2022-10-16T03:42:03;1.60;;;1.25;;
29414;SDS011;20303;48.302;11.914;2022-10-16T03:52:04;1.35;;;1.25;;
29414;SDS011;20303;48.302;11.914;2022-10-16T04:02:05;1.50;;;1.38;;
29414;SDS011;20303;48.302;11.914;2022-10-16T04:12:07;1.70;;;1.40;;
29414;SDS011;20303;48.302;11.914;2022-10-16T04:22:08;1.40;;;1.30;;
29414;SDS011;20303;48.302;11.914;2022-10-16T04:32:10;1.55;;;1.30;;
29414;SDS011;20303;48.302;11.914;2022-10-16T04:42:11;1.55;;;1.40;;
29414;SDS011;20303;48.302;11.914;2022-10-16T04:52:12;1.30;;;1.20;;
29414;SDS011;20303;48.302;11.914;2022-10-16T05:02:13;1.30;;;1.10;;
29414;SDS011;20303;48.302;11.914;2022-10-16T05:12:15;1.65;;;1.40;;
29414;SDS011;20303;48.302;11.914;2022-10-16T05:22:16;1.40;;;1.30;;
29414;SDS011;20303;48.302;11.914;2022-10-16T05:32:18;1.40;;;1.25;;
29414;SDS011;20303;48.302;11.914;2022-10-16T05:42:19;1.30;;;1.20;;
29414;SDS011;20303;48.302;11.914;2022-10-16T05:52:20;1.30;;;1.20;;
29414;SDS011;20303;48.302;11.914;2022-10-16T06:02:22;1.33;;;1.23;;
29414;SDS011;20303;48.302;11.914;2022-10-16T06:12:23;1.30;;;1.20;;
29414;SDS011;20303;48.302;11.914;2022-10-16T06:22:24;1.50;;;1.30;;
29414;SDS011;20303;48.302;11.914;2022-10-16T06:32:26;1.40;;;1.30;;
29414;SDS011;20303;48.302;11.914;2022-10-16T06:42:28;1.60;;;1.25;;
29414;SDS011;20303;48.302;11.914;2022-10-16T06:52:32;1.52;;;1.10;;
29414;SDS011;20303;48.302;11.914;2022-10-16T07:02:33;1.45;;;1.20;;
29414;SDS011;20303;48.302;11.914;2022-10-16T07:12:37;1.17;;;1.08;;
29414;SDS011;20303;48.302;11.914;2022-10-16T07:22:38;1.30;;;1.20;;
29414;SDS011;20303;48.302;11.914;2022-10-16T07:32:39;1.30;;;1.20;;
29414;SDS011;20303;48.302;11.914;2022-10-16T07:42:40;1.30;;;1.20;;
29414;SDS011;20303;48.302;11.914;2022-10-16T07:52:42;1.40;;;1.10;;
29414;SDS011;20303;48.302;11.914;2022-10-16T08:02:43;1.30;;;1.20;;
29414;SDS011;20303;48.302;11.914;2022-10-16T08:12:44;1.38;;;1.27;;
29414;SDS011;20303;48.302;11.914;2022-10-16T08:22:46;1.33;;;1.23;;
29414;SDS011;20303;48.302;11.914;2022-10-16T08:32:47;1.30;;;1.20;;
29414;SDS011;20303;48.302;11.914;2022-10-16T08:53:28;1.45;;;1.35;;
29414;SDS011;20303;48.302;11.914;2022-10-16T09:14:06;1.33;;;1.23;;
29414;SDS011;20303;48.302;11.914;2022-10-16T09:24:36;1.20;;;1.10;;
29414;SDS011;20303;48.302;11.914;2022-10-16T09:34:39;1.25;;;1.15;;
29414;SDS011;20303;48.302;11.914;2022-10-16T09:44:42;1.52;;;1.42;;
29414;SDS011;20303;48.302;11.914;2022-10-16T09:54:53;1.35;;;1.25;;
29414;SDS011;20303;48.302;11.914;2022-10-16T10:04:55;1.92;;;1.30;;
29414;SDS011;20303;48.302;11.914;2022-10-16T10:14:58;1.25;;;1.15;;
29414;SDS011;20303;48.302;11.914;2022-10-16T10:35:22;1.40;;;1.27;;
29414;SDS011;20303;48.302;11.914;2022-10-16T10:45:47;1.40;;;1.30;;
29414;SDS011;20303;48.302;11.914;2022-10-16T11:06:02;1.40;;;1.30;;
29414;SDS011;20303;48.302;11.914;2022-10-16T11:26:16;2.25;;;1.30;;
29414;SDS011;20303;48.302;11.914;2022-10-16T11:46:38;1.30;;;1.20;;
29414;SDS011;20303;48.302;11.914;2022-10-16T11:56:43;1.30;;;1.20;;
29414;SDS011;20303;48.302;11.914;2022-10-16T12:06:50;1.35;;;1.25;;
29414;SDS011;20303;48.302;11.914;2022-10-16T12:17:01;1.33;;;1.23;;
29414;SDS011;20303;48.302;11.914;2022-10-16T12:27:06;1.33;;;1.23;;
29414;SDS011;20303;48.302;11.914;2022-10-16T12:37:36;1.17;;;1.08;;
29414;SDS011;20303;48.302;11.914;2022-10-16T12:47:47;1.30;;;1.08;;
29414;SDS011;20303;48.302;11.914;2022-10-16T12:58:06;1.20;;;1.10;;
29414;SDS011;20303;48.302;11.914;2022-10-16T13:08:29;1.15;;;1.05;;
29414;SDS011;20303;48.302;11.914;2022-10-16T13:28:45;1.20;;;1.10;;
29414;SDS011;20303;48.302;11.914;2022-10-16T13:38:46;1.13;;;1.02;;
29414;SDS011;20303;48.302;11.914;2022-10-16T13:48:57;1.10;;;1.00;;
29414;SDS011;20303;48.302;11.914;2022-10-16T14:09:47;1.10;;;1.00;;
29414;SDS011;20303;48.302;11.914;2022-10-16T14:19:51;1.20;;;1.10;;
29414;SDS011;20303;48.302;11.914;2022-10-16T14:30:12;1.17;;;1.08;;
29414;SDS011;20303;48.302;11.914;2022-10-16T14:40:18;1.20;;;1.10;;
29414;SDS011;20303;48.302;11.914;2022-10-16T14:50:23;1.05;;;1.00;;
29414;SDS011;20303;48.302;11.914;2022-10-16T15:00:25;1.10;;;1.00;;
29414;SDS011;20303;48.302;11.914;2022-10-16T15:10:26;0.95;;;0.90;;
29414;SDS011;20303;48.302;11.914;2022-10-16T15:20:29;1.10;;;1.00;;
29414;SDS011;20303;48.302;11.914;2022-10-16T15:30:34;1.13;;;1.00;;
29414;SDS011;20303;48.302;11.914;2022-10-16T15:40:35;0.90;;;0.90;;
29414;SDS011;20303;48.302;11.914;2022-10-16T15:50:38;0.90;;;0.88;;
29414;SDS011;20303;48.302;11.914;2022-10-16T16:00:39;0.80;;;0.80;;
29414;SDS011;20303;48.302;11.914;2022-10-16T16:10:41;1.00;;;0.90;;
29414;SDS011;20303;48.302;11.914;2022-10-16T16:20:42;1.27;;;0.90;;
29414;SDS011;20303;48.302;11.914;2022-10-16T16:30:43;1.00;;;1.00;;
29414;SDS011;20303;48.302;11.914;2022-10-16T16:40:44;0.95;;;0.90;;
29414;SDS011;20303;48.302;11.914;2022-10-16T16:50:48;0.90;;;0.90;;
29414;SDS011;20303;48.302;11.914;2022-10-16T17:00:49;0.80;;;0.80;;
29414;SDS011;20303;48.302;11.914;2022-10-16T17:10:52;1.10;;;1.00;;
29414;SDS011;20303;48.302;11.914;2022-10-16T17:20:56;1.02;;;1.00;;
29414;SDS011;20303;48.302;11.914;2022-10-16T17:31:10;1.38;;;1.00;;
29414;SDS011;20303;48.302;11.914;2022-10-16T17:41:14;0.88;;;0.88;;
29414;SDS011;20303;48.302;11.914;2022-10-16T17:51:18;1.00;;;0.90;;
29414;SDS011;20303;48.302;11.914;2022-10-16T18:01:22;1.20;;;1.10;;
29414;SDS011;20303;48.302;11.914;2022-10-16T18:11:28;0.93;;;0.90;;
29414;SDS011;20303;48.302;11.914;2022-10-16T18:21:30;1.10;;;1.00;;
29414;SDS011;20303;48.302;11.914;2022-10-16T18:31:32;1.00;;;0.90;;
29414;SDS011;20303;48.302;11.914;2022-10-16T18:41:34;0.85;;;0.85;;
29414;SDS011;20303;48.302;11.914;2022-10-16T18:51:38;1.02;;;0.93;;
29414;SDS011;20303;48.302;11.914;2022-10-16T19:01:39;1.05;;;1.00;;
29414;SDS011;20303;48.302;11.914;2022-10-16T19:11:42;0.90;;;0.90;;
29414;SDS011;20303;48.302;11.914;2022-10-16T19:21:44;1.10;;;1.00;;
29414;SDS011;20303;48.302;11.914;2022-10-16T19:31:47;1.10;;;1.00;;
29414;SDS011;20303;48.302;11.914;2022-10-16T19:41:48;1.10;;;1.00;;
29414;SDS011;20303;48.302;11.914;2022-10-16T19:51:50;1.15;;;1.05;;
29414;SDS011;20303;48.302;11.914;2022-10-16T20:01:53;1.08;;;0.90;;
29414;SDS011;20303;48.302;11.914;2022-10-16T20:11:54;1.00;;;0.90;;
29414;SDS011;20303;48.302;11.914;2022-10-16T20:21:56;1.17;;;1.08;;
29414;SDS011;20303;48.302;11.914;2022-10-16T20:31:57;1.55;;;1.20;;
29414;SDS011;20303;48.302;11.914;2022-10-16T20:41:58;1.20;;;1.02;;
29414;SDS011;20303;48.302;11.914;2022-10-16T20:51:59;1.20;;;1.00;;
29414;SDS011;20303;48.302;11.914;2022-10-16T21:02:01;1.10;;;1.00;;
29414;SDS011;20303;48.302;11.914;2022-10-16T21:12:04;1.13;;;1.02;;
29414;SDS011;20303;48.302;11.914;2022-10-16T21:22:06;1.30;;;1.20;;
29414;SDS011;20303;48.302;11.914;2022-10-16T21:32:07;1.20;;;1.10;;
29414;SDS011;20303;48.302;11.914;2022-10-16T21:42:08;1.20;;;1.10;;
29414;SDS011;20303;48.302;11.914;2022-10-16T21:52:09;1.20;;;1.10;;
29414;SDS011;20303;48.302;11.914;2022-10-16T22:02:11;1.20;;;1.10;;
29414;SDS011;20303;48.302;11.914;2022-10-16T22:12:12;1.30;;;1.20;;
29414;SDS011;20303;48.302;11.914;2022-10-16T22:22:18;1.48;;;1.30;;
29414;SDS011;20303;48.302;11.914;2022-10-16T22:32:19;1.30;;;1.20;;
29414;SDS011;20303;48.302;11.914;2022-10-16T22:42:21;1.30;;;1.20;;
29414;SDS011;20303;48.302;11.914;2022-10-16T22:52:22;1.52;;;1.25;;
29414;SDS011;20303;48.302;11.914;2022-10-16T23:02:23;1.40;;;1.30;;
29414;SDS011;20303;48.302;11.914;2022-10-16T23:12:24;1.35;;;1.23;;
29414;SDS011;20303;48.302;11.914;2022-10-16T23:22:26;1.30;;;1.20;;
29414;SDS011;20303;48.302;11.914;2022-10-16T23:32:27;1.50;;;1.20;;
29414;SDS011;20303;48.302;11.914;2022-10-16T23:42:28;1.38;;;1.27;;
29414;SDS011;20303;48.302;11.914;2022-10-16T23:52:29;1.50;;;1.40;;
